Terminal Aerodrome Forecast
Issued by NWS

Home | Current Version | Previous Version | Text Only | Print | Product List | Glossary On
Versions: 1 2 3 4 5 6 7 8 9 10 11 12
000
FTUS43 KDTX 221720
TAFPTK
TAF
KPTK 221720Z 2218/2318 18012G18KT P6SM FEW040 SCT120
     FM222200 17010KT P6SM OVC120
     FM230300 18008KT P6SM OVC050
     FM231400 19007KT 5SM -SHRA BR OVC030=

USA.gov is the U.S. government's official web portal to all federal, state and local government web resources and services.